• Join FlightAware (Why Join?)
  • Login
  • US Flag 
02:35AM EDT


 

Airport Tracker/Info


-or-


 

Live Flight TrackerFlight Track Log ✈ SWA1040 ✈ 27-Apr-2013 ✈ KBWI - KRDU

Flight Track Log - Related Links

Times and Time Zones

All times are in EDT time to prevent confusion due to time zone crossing. See the SWA1040 flight status page for this flight to view local times or setup timezone preferences in your user account.

Time Position Orientation Groundspeed Altitude Reporting Facility
EDT Latitude Longitude Course Direction KTS MPH feet Rate Location/Type
02:36PM 39.1667 -76.7000 201° Southwest 176 203 1,500  Level Potomac TRACON
02:37PM 39.1333 -76.7167 201° Southwest 221 254 5,300 2,880 Climbing Potomac TRACON
02:38PM 39.1000 -76.6667 131° Southeast 242 278 7,000 2,220 Climbing Potomac TRACON
02:39PM 39.0167 -76.6333 163° South 285 328 9,600 3,120 Climbing Potomac TRACON
02:40PM 38.9500 -76.6333 180° South 307 353 13,000 3,300 Climbing Potomac TRACON
02:41PM 38.8522 -76.6631 193° South 353 406 15,900 2,700 Climbing Washington Center
02:42PM 38.7478 -76.6883 191° South 385 443 18,500 1,800 Climbing Washington Center
02:43PM 38.6433 -76.7106 189° South 390 449 19,600 1,740 Climbing Washington Center
02:44PM 38.5411 -76.7358 191° South 385 443 22,000 1,200 Climbing Washington Center
02:45PM 38.4386 -76.7686 194° South 385 443 22,000  Level Washington Center
02:46PM 38.3381 -76.8014 194° South 380 437 22,000  Level Washington Center
02:47PM 38.2356 -76.8289 192° South 374 430 22,000  Level Washington Center
02:48PM 38.1372 -76.8642 196° South 374 430 22,000  Level Washington Center
02:49PM 38.0328 -76.8967 194° South 379 436 22,000  Level Washington Center
02:50PM 37.9300 -76.9292 194° South 379 436 22,000  Level Washington Center
02:51PM 37.8297 -76.9589 193° South 379 436 22,000  Level Washington Center
02:52PM 37.7272 -76.9911 194° South 379 436 22,000  Level Washington Center
02:53PM 37.6244 -77.0233 194° South 379 436 22,000  Level Washington Center
02:54PM 37.5344 -77.0531 195° South 379 436 22,000  Level Washington Center
02:55PM 37.4214 -77.0875 194° South 384 442 22,000 -300 Level Washington Center
02:56PM 37.3292 -77.1197 196° South 378 435 21,400 -780 Descending Washington Center
02:57PM 37.2389 -77.1753 206° Southwest 368 423 20,500 -1,080 Descending Washington Center
02:58PM 37.1439 -77.2439 210° Southwest 363 418 19,300 -1,140 Descending Washington Center
02:59PM 37.0619 -77.3044 211° Southwest 358 412 18,300 -840 Descending Washington Center
03:00PM 36.9817 -77.3650 211° Southwest 353 406 17,700 -660 Descending Washington Center
03:01PM 36.8994 -77.4256 211° Southwest 347 399 17,000 -360 Descending Washington Center
03:02PM 36.8233 -77.4833 211° Southwest 341 392 17,000  Level Washington Center
03:03PM 36.7411 -77.5411 209° Southwest 336 387 17,000  Level Washington Center
03:04PM 36.6608 -77.6011 211° Southwest 336 387 17,000  Level Washington Center
03:05PM 36.5783 -77.6636 211° Southwest 342 394 17,100  Climbing Washington Center
03:06PM 36.5000 -77.7367 217° Southwest 353 406 17,000 -60 Descending Washington Center
03:07PM 36.4317 -77.8225 225° Southwest 353 406 17,000 -960 Level Washington Center
03:08PM 36.3675 -77.9083 227° Southwest 346 398 15,100 -1,920 Descending Washington Center
03:08PM 36.3353 -77.9511 227° Southwest 335 386 14,200 -1,920 Descending Washington Center
03:09PM 36.3031 -77.9942 227° Southwest 341 392 13,200 -1,920 Descending Washington Center
03:09PM 36.2667 -78.0394 225° Southwest 329 379 12,100 -2,220 Descending Washington Center
03:10PM 36.2450 -78.0772 235° Southwest 341 392 11,000 -1,620 Descending Washington Center
03:10PM 36.2125 -78.1356 235° Southwest 315 362 10,300 -900 Descending Washington Center
03:11PM 36.2036 -78.1583 244° Southwest 321 369 10,100 -1,380 Descending Washington Center
03:11PM 36.1667 -78.2344 239° Southwest 285 328 8,800 -1,440 Descending Washington Center
03:12PM 36.1272 -78.3178 240° Southwest 276 318 7,600 -1,380 Descending Washington Center
03:13PM 36.0922 -78.3886 239° Southwest 271 312 6,200 -1,620 Descending Washington Center
03:14PM 36.0789 -78.4164 239° Southwest 284 327 5,700 -1,500 Descending Washington Center
03:14PM 36.0506 -78.4719 238° Southwest 269 310 4,700 -1,440 Descending Washington Center
03:15PM 36.0417 -78.4897 238° Southwest 284 327 4,300 -1,200 Descending Washington Center
03:15PM 36.0111 -78.5500 238° Southwest 263 303 3,400 -720 Descending Washington Center
03:16PM 35.9736 -78.6258 239° Southwest 235 270 3,000 -420 Descending Washington Center
03:17PM 35.9472 -78.6811 239° Southwest 176 203 2,600 -540 Descending Washington Center
03:18PM 35.9231 -78.7289 238° Southwest 155 178 2,000 -840 Descending Washington Center
03:19PM 35.8953 -78.7561 218° Southwest 135 155 1,000 -1,140 Descending Washington Center
03:21PM 35.8776 -78.7875 270° West  Level Estimated
03:28PM 35.8776 -78.7875 349° North  Level Estimated